K-storm — V2DV8 — position and weather

sailwx.info

Track history (hours):
 
Tides and Currents Weather Stations Pressure Air Temp Water Temp Dewpoint Dewpoint Depression Visibility Wind Speed Wind Dir Waves Ship Positions

K-storm

Last reported at 2016-Aug-26 09:33 UTC. Time now 2016-Aug-29 01:56 UTC.
Position N 25°41' W 079°43'.

Length 139 m; draft 6.8 m.

Type: Ship. MMSI: 305350000.

Date/timePositionNaut miles runAvg speedWind from/ knotsBaromVisibWave heightAir tempDewpointWater temp
2016-Aug-26 09:33N 25°41' W 079°43'1313.6
2016-Aug-26 08:34N 25°50' W 079°54'1514.7
2016-Aug-26 07:34N 26°02' W 080°03'4 3.8
2016-Aug-26 06:32N 26°04' W 080°07'0 0.0
2016-Aug-26 04:28N 26°04' W 080°07'0 0.0
2016-Aug-26 03:28N 26°04' W 080°07'0 0.0
2016-Aug-26 02:33N 26°04' W 080°07'0 0.0
2016-Aug-26 01:33N 26°04' W 080°07'0 0.0
2016-Aug-26 00:33N 26°04' W 080°07'0 0.0
2016-Aug-25 23:32N 26°04' W 080°07'0 0.0
2016-Aug-25 22:29N 26°04' W 080°07'0 0.0
2016-Aug-25 21:31N 26°04' W 080°07'0 0.0
2016-Aug-25 20:31N 26°04' W 080°07'0 0.0
2016-Aug-25 19:33N 26°04' W 080°07'0 0.0
2016-Aug-25 18:33N 26°04' W 080°07'0 0.0
2016-Aug-25 17:33N 26°04' W 080°07'0 0.0
2016-Aug-25 16:29N 26°04' W 080°07'0 0.0
2016-Aug-25 15:32N 26°04' W 080°07'0 0.0
2016-Aug-25 14:31N 26°04' W 080°07'0 0.0
2016-Aug-25 13:31N 26°04' W 080°07'0 0.0
2016-Aug-25 12:27N 26°04' W 080°07'0 0.0
2016-Aug-25 11:33N 26°04' W 080°07'0 0.0
2016-Aug-25 10:32N 26°04' W 080°07'0 0.0
2016-Aug-25 09:32N 26°04' W 080°07'0 0.0
2016-Aug-25 08:32N 26°04' W 080°07'0 0.0
2016-Aug-25 07:28N 26°04' W 080°07'0 0.0
2016-Aug-25 06:31N 26°04' W 080°07'0 0.0
2016-Aug-25 04:33N 26°04' W 080°07'0 0.0
2016-Aug-25 03:32N 26°04' W 080°07'0 0.0
2016-Aug-25 02:32N 26°04' W 080°07'0 0.0
2016-Aug-25 01:32N 26°04' W 080°07'1 1.0
2016-Aug-25 00:33N 26°05' W 080°07'9 9.2
2016-Aug-24 23:34N 26°00' W 079°58'1817.7
2016-Aug-24 22:33N 25°47' W 079°45'  
2016-Aug-19 08:17N 25°36' W 079°41'1013.3
2016-Aug-19 07:33N 25°45' W 079°44'1413.6
2016-Aug-19 06:33N 25°56' W 079°54'1313.2
2016-Aug-19 05:33N 26°05' W 080°04'2 2.2
2016-Aug-19 04:32N 26°04' W 080°07'0 0.0
2016-Aug-19 03:31N 26°04' W 080°07'0 0.0
2016-Aug-19 02:25N 26°04' W 080°07'0 0.0
2016-Aug-19 01:31N 26°04' W 080°07'0 0.0
2016-Aug-19 00:27N 26°04' W 080°07'0 0.0
2016-Aug-18 23:33N 26°04' W 080°07'0 0.0
2016-Aug-18 22:29N 26°04' W 080°07'0 0.0
2016-Aug-18 21:23N 26°04' W 080°07'0 0.0
2016-Aug-18 20:32N 26°04' W 080°07'0 0.0
2016-Aug-18 19:25N 26°04' W 080°07'0 0.0
2016-Aug-18 18:31N 26°04' W 080°07'0 0.0
2016-Aug-18 17:24N 26°04' W 080°07'0 0.0
2016-Aug-18 16:33N 26°04' W 080°07'0 0.0
2016-Aug-18 15:29N 26°04' W 080°07'0 0.0
2016-Aug-18 14:29N 26°04' W 080°07'0 0.0
2016-Aug-18 13:31N 26°04' W 080°07'0 0.0
2016-Aug-18 12:31N 26°04' W 080°07'0 0.0
2016-Aug-18 11:31N 26°04' W 080°07'0 0.0
2016-Aug-18 10:30N 26°04' W 080°07'0 0.0
2016-Aug-18 09:33N 26°04' W 080°07'0 0.0
2016-Aug-18 08:29N 26°04' W 080°07'0 0.0
2016-Aug-18 07:32N 26°04' W 080°07'0 0.0
2016-Aug-18 06:31N 26°04' W 080°07'0 0.0
2016-Aug-18 05:31N 26°04' W 080°07'0 0.0
2016-Aug-18 04:31N 26°04' W 080°07'0 0.0
2016-Aug-18 03:27N 26°04' W 080°07'0 0.0
2016-Aug-18 02:33N 26°04' W 080°07'0 0.0
2016-Aug-18 01:29N 26°04' W 080°07'0 0.0
2016-Aug-18 00:32N 26°04' W 080°07'0 0.0
2016-Aug-17 23:33N 26°04' W 080°07'4 4.0
2016-Aug-17 22:34N 26°06' W 080°03'5 5.0
2016-Aug-17 21:33N 26°02' W 079°59'1616.1
2016-Aug-17 20:33N 25°50' W 079°48'1717.3
2016-Aug-17 19:33N 25°33' W 079°41'  
Track history (hours):
 
Tides and Currents Weather Stations Pressure Air Temp Water Temp Dewpoint Dewpoint Depression Visibility Wind Speed Wind Dir Waves Ship Positions

K-storm

Last reported at 2016-Aug-26 09:33 UTC. Time now 2016-Aug-29 01:56 UTC.
Position N 25°41' W 079°43'.

Length 139 m; draft 6.8 m.

Type: Ship. MMSI: 305350000.

Date/timePositionNaut miles runAvg speedWind from/ knotsBaromVisibWave heightAir tempDewpointWater temp
2016-Aug-26 09:33N 25°41' W 079°43'1313.6
2016-Aug-26 08:34N 25°50' W 079°54'1514.7
2016-Aug-26 07:34N 26°02' W 080°03'4 3.8
2016-Aug-26 06:32N 26°04' W 080°07'0 0.0
2016-Aug-26 04:28N 26°04' W 080°07'0 0.0
2016-Aug-26 03:28N 26°04' W 080°07'0 0.0
2016-Aug-26 02:33N 26°04' W 080°07'0 0.0
2016-Aug-26 01:33N 26°04' W 080°07'0 0.0
2016-Aug-26 00:33N 26°04' W 080°07'0 0.0
2016-Aug-25 23:32N 26°04' W 080°07'0 0.0
2016-Aug-25 22:29N 26°04' W 080°07'0 0.0
2016-Aug-25 21:31N 26°04' W 080°07'0 0.0
2016-Aug-25 20:31N 26°04' W 080°07'0 0.0
2016-Aug-25 19:33N 26°04' W 080°07'0 0.0
2016-Aug-25 18:33N 26°04' W 080°07'0 0.0
2016-Aug-25 17:33N 26°04' W 080°07'0 0.0
2016-Aug-25 16:29N 26°04' W 080°07'0 0.0
2016-Aug-25 15:32N 26°04' W 080°07'0 0.0
2016-Aug-25 14:31N 26°04' W 080°07'0 0.0
2016-Aug-25 13:31N 26°04' W 080°07'0 0.0
2016-Aug-25 12:27N 26°04' W 080°07'0 0.0
2016-Aug-25 11:33N 26°04' W 080°07'0 0.0
2016-Aug-25 10:32N 26°04' W 080°07'0 0.0
2016-Aug-25 09:32N 26°04' W 080°07'0 0.0
2016-Aug-25 08:32N 26°04' W 080°07'0 0.0
2016-Aug-25 07:28N 26°04' W 080°07'0 0.0
2016-Aug-25 06:31N 26°04' W 080°07'0 0.0
2016-Aug-25 04:33N 26°04' W 080°07'0 0.0
2016-Aug-25 03:32N 26°04' W 080°07'0 0.0
2016-Aug-25 02:32N 26°04' W 080°07'0 0.0
2016-Aug-25 01:32N 26°04' W 080°07'1 1.0
2016-Aug-25 00:33N 26°05' W 080°07'9 9.2
2016-Aug-24 23:34N 26°00' W 079°58'1817.7
2016-Aug-24 22:33N 25°47' W 079°45'  
2016-Aug-19 08:17N 25°36' W 079°41'1013.3
2016-Aug-19 07:33N 25°45' W 079°44'1413.6
2016-Aug-19 06:33N 25°56' W 079°54'1313.2
2016-Aug-19 05:33N 26°05' W 080°04'2 2.2
2016-Aug-19 04:32N 26°04' W 080°07'0 0.0
2016-Aug-19 03:31N 26°04' W 080°07'0 0.0
2016-Aug-19 02:25N 26°04' W 080°07'0 0.0
2016-Aug-19 01:31N 26°04' W 080°07'0 0.0
2016-Aug-19 00:27N 26°04' W 080°07'0 0.0
2016-Aug-18 23:33N 26°04' W 080°07'0 0.0
2016-Aug-18 22:29N 26°04' W 080°07'0 0.0
2016-Aug-18 21:23N 26°04' W 080°07'0 0.0
2016-Aug-18 20:32N 26°04' W 080°07'0 0.0
2016-Aug-18 19:25N 26°04' W 080°07'0 0.0
2016-Aug-18 18:31N 26°04' W 080°07'0 0.0
2016-Aug-18 17:24N 26°04' W 080°07'0 0.0
2016-Aug-18 16:33N 26°04' W 080°07'0 0.0
2016-Aug-18 15:29N 26°04' W 080°07'0 0.0
2016-Aug-18 14:29N 26°04' W 080°07'0 0.0
2016-Aug-18 13:31N 26°04' W 080°07'0 0.0
2016-Aug-18 12:31N 26°04' W 080°07'0 0.0
2016-Aug-18 11:31N 26°04' W 080°07'0 0.0
2016-Aug-18 10:30N 26°04' W 080°07'0 0.0
2016-Aug-18 09:33N 26°04' W 080°07'0 0.0
2016-Aug-18 08:29N 26°04' W 080°07'0 0.0
2016-Aug-18 07:32N 26°04' W 080°07'0 0.0
2016-Aug-18 06:31N 26°04' W 080°07'0 0.0
2016-Aug-18 05:31N 26°04' W 080°07'0 0.0
2016-Aug-18 04:31N 26°04' W 080°07'0 0.0
2016-Aug-18 03:27N 26°04' W 080°07'0 0.0
2016-Aug-18 02:33N 26°04' W 080°07'0 0.0
2016-Aug-18 01:29N 26°04' W 080°07'0 0.0
2016-Aug-18 00:32N 26°04' W 080°07'0 0.0
2016-Aug-17 23:33N 26°04' W 080°07'4 4.0
2016-Aug-17 22:34N 26°06' W 080°03'5 5.0
2016-Aug-17 21:33N 26°02' W 079°59'1616.1
2016-Aug-17 20:33N 25°50' W 079°48'1717.3
2016-Aug-17 19:33N 25°33' W 079°41'  

Dump ship's entire track history